Time;durP1;ratioP1;P1;durP2;ratioP2;P2;SDS_P1;SDS_P2;PMS_P1;PMS_P2;Temp;Humidity;BMP_temperature;BMP_pressure;BME280_temperature;BME280_humidity;BME280_pressure;Samples;Min_cycle;Max_cycle;Signal;HPM_P1;HPM_P2
2021/11/03 00:00:08;;;;;;;88.45;48.23;;;;;;;6.30;88.50;99011.41;1623704;88;25642;-71
2021/11/03 00:02:36;;;;;;;95.80;50.95;;;;;;;6.30;88.68;99010.06;1653761;83;25967;-71
2021/11/03 00:05:04;;;;;;;91.47;49.95;;;;;;;6.29;88.61;99014.66;1731356;82;25712;-71
2021/11/03 00:07:31;;;;;;;91.30;49.98;;;;;;;6.29;88.76;99009.84;1713379;83;25235;-71
2021/11/03 00:09:58;;;;;;;90.47;49.83;;;;;;;6.31;88.71;99015.69;1731036;82;25947;-71
2021/11/03 00:12:26;;;;;;;92.57;49.98;;;;;;;6.32;88.64;99015.94;1713304;83;25654;-72
2021/11/03 00:14:53;;;;;;;88.95;48.17;;;;;;;6.34;88.81;99012.38;1731250;82;27386;-72
2021/11/03 00:17:19;;;;;;;85.28;47.73;;;;;;;6.33;88.89;99012.13;1712885;83;25426;-71
2021/11/03 00:19:45;;;;;;;81.20;47.43;;;;;;;6.30;88.59;99013.56;1731403;82;25400;-71
2021/11/03 00:22:14;;;;;;;91.37;50.35;;;;;;;6.29;88.65;99013.31;1713167;83;25465;-71
2021/11/03 00:24:40;;;;;;;92.53;47.88;;;;;;;6.31;88.80;99015.69;1731200;81;25681;-71
2021/11/03 00:27:07;;;;;;;90.55;48.78;;;;;;;6.32;88.84;99019.97;1713197;83;27247;-71
2021/11/03 00:29:33;;;;;;;87.75;47.08;;;;;;;6.33;88.98;99018.31;1731299;82;25627;-71
2021/11/03 00:31:59;;;;;;;83.00;46.33;;;;;;;6.34;88.92;99016.41;1712960;83;25475;-71
2021/11/03 00:34:26;;;;;;;82.57;45.78;;;;;;;6.34;88.91;99019.88;1731302;82;25429;-71
2021/11/03 00:36:52;;;;;;;85.85;47.27;;;;;;;6.34;88.90;99019.88;1713216;83;25406;-71
2021/11/03 00:39:22;;;;;;;87.12;47.93;;;;;;;6.36;89.03;99014.20;1731060;82;27336;-71
2021/11/03 00:41:47;;;;;;;84.50;47.58;;;;;;;6.38;89.12;99017.36;1684470;84;25479;-71
2021/11/03 00:44:13;;;;;;;85.87;48.00;;;;;;;6.39;89.03;99019.52;1709185;82;25631;-70
2021/11/03 00:46:39;;;;;;;85.20;47.55;;;;;;;6.40;89.04;99017.05;1713002;83;25651;-71
2021/11/03 00:49:06;;;;;;;89.80;46.83;;;;;;;6.42;89.05;99022.89;1731433;82;25663;-71
2021/11/03 00:51:32;;;;;;;78.50;44.50;;;;;;;6.41;89.30;99019.42;1713387;83;27348;-71
2021/11/03 00:53:59;;;;;;;81.55;45.12;;;;;;;6.41;89.48;99020.77;1731118;82;25586;-71
2021/11/03 00:56:25;;;;;;;82.90;46.00;;;;;;;6.39;88.95;99021.64;1712061;83;25478;-71
2021/11/03 00:58:52;;;;;;;82.50;46.95;;;;;;;6.36;89.13;99018.23;1702901;84;25998;-71
2021/11/03 01:01:18;;;;;;;84.85;46.77;;;;;;;6.36;89.20;99020.91;1702716;84;25630;-71
2021/11/03 01:03:45;;;;;;;79.67;45.92;;;;;;;6.34;89.18;99019.88;1703012;84;27439;-71
2021/11/03 01:06:11;;;;;;;81.32;45.75;;;;;;;6.36;89.35;99020.91;1702790;84;25492;-71
2021/11/03 01:08:37;;;;;;;81.40;44.53;;;;;;;6.36;89.44;99013.64;1702717;84;25625;-71
2021/11/03 01:11:04;;;;;;;79.70;45.48;;;;;;;6.35;89.42;99021.47;1702859;84;25479;-71
2021/11/03 01:13:31;;;;;;;77.40;44.23;;;;;;;6.35;89.45;99016.10;1702978;84;25580;-70
2021/11/03 01:15:58;;;;;;;80.97;44.63;;;;;;;6.34;89.59;99016.41;1702621;84;27348;-70
2021/11/03 01:18:28;;;;;;;79.20;46.08;;;;;;;6.33;89.56;99012.13;1685118;85;25569;-70
2021/11/03 01:20:56;;;;;;;76.72;44.67;;;;;;;6.35;89.85;99013.41;1702919;84;25455;-70
2021/11/03 01:23:23;;;;;;;74.85;42.83;;;;;;;6.35;89.79;99016.10;1702608;84;25464;-70
2021/11/03 01:25:51;;;;;;;82.90;46.05;;;;;;;6.36;89.81;99011.52;1702910;84;25405;-70
2021/11/03 01:28:19;;;;;;;80.67;44.25;;;;;;;6.37;89.83;99017.14;1685100;85;28012;-69
2021/11/03 01:30:47;;;;;;;75.50;43.23;;;;;;;6.39;89.75;99012.80;1702686;84;25678;-69
2021/11/03 01:33:18;;;;;;;81.17;46.13;;;;;;;6.40;89.75;99007.65;1702839;84;25678;-69
2021/11/03 01:35:45;;;;;;;78.00;44.08;;;;;;;6.43;90.02;99008.38;1702940;84;25513;-69
2021/11/03 01:38:12;;;;;;;83.27;44.70;;;;;;;6.43;89.92;99010.50;1684945;85;25589;-70
2021/11/03 01:40:43;;;;;;;78.35;44.50;;;;;;;6.42;89.90;99014.30;1702973;84;27326;-69
2021/11/03 01:43:33;;;;;;;76.72;43.05;;;;;;;6.43;89.86;99011.84;1702799;84;25600;-69
2021/11/03 01:46:28;;;;;;;80.22;44.93;;;;;;;6.45;89.95;99008.84;1702529;84;25413;-69
2021/11/03 01:49:18;;;;;;;80.38;43.83;;;;;;;6.45;90.03;99011.00;1702978;84;25840;-70
2021/11/03 01:51:55;;;;;;;75.85;43.13;;;;;;;6.47;90.04;99020.88;1696504;83;25569;-70
2021/11/03 01:54:39;;;;;;;75.22;43.50;;;;;;;6.48;90.03;99019.75;1702702;84;27507;-70
2021/11/03 01:57:09;;;;;;;82.05;44.30;;;;;;;6.50;90.10;99019.45;1680092;83;25581;-69
2021/11/03 01:59:43;;;;;;;76.80;42.08;;;;;;;6.53;90.20;99024.20;1710108;83;25897;-69
2021/11/03 02:02:10;;;;;;;74.32;43.68;;;;;;;6.53;90.30;99023.64;1710226;83;25920;-70
2021/11/03 02:04:37;;;;;;;81.87;45.00;;;;;;;6.54;90.41;99025.79;1710384;83;25621;-70
2021/11/03 02:07:08;;;;;;;77.67;44.18;;;;;;;6.56;90.35;99030.86;1710062;83;27331;-70
2021/11/03 02:09:35;;;;;;;78.75;43.87;;;;;;;6.57;90.39;99030.52;1710258;83;25418;-70
2021/11/03 02:12:01;;;;;;;74.40;42.25;;;;;;;6.58;90.43;99027.30;1710512;83;25410;-70
2021/11/03 02:14:28;;;;;;;72.58;42.05;;;;;;;6.59;90.63;99030.20;1709975;83;25646;-70
2021/11/03 02:16:55;;;;;;;71.42;39.95;;;;;;;6.60;90.60;99035.27;1710241;83;25485;-70
2021/11/03 02:19:27;;;;;;;76.55;42.83;;;;;;;6.61;90.55;99030.71;1710301;83;27986;-70
2021/11/03 02:22:23;;;;;;;73.62;40.25;;;;;;;6.63;90.62;99035.21;1709530;83;25836;-70
2021/11/03 02:25:10;;;;;;;70.65;40.03;;;;;;;6.62;90.66;99031.72;1702259;84;25410;-70
2021/11/03 02:27:44;;;;;;;73.55;41.10;;;;;;;6.64;90.83;99030.88;1710272;83;25425;-70
2021/11/03 02:30:16;;;;;;;71.62;40.48;;;;;;;6.66;90.90;99020.59;1710038;83;25447;-70
2021/11/03 02:32:43;;;;;;;68.15;38.92;;;;;;;6.68;90.90;99021.62;1710366;83;28955;-70
2021/11/03 02:35:13;;;;;;;70.30;40.43;;;;;;;6.69;90.97;99024.53;1710081;83;25544;-70
2021/11/03 02:37:44;;;;;;;66.28;38.10;;;;;;;6.70;90.99;99029.60;1710206;83;25750;-70
2021/11/03 02:40:22;;;;;;;66.82;39.35;;;;;;;6.72;91.19;99026.60;1710199;83;25944;-70
2021/11/03 02:43:21;;;;;;;69.75;39.35;;;;;;;6.74;91.35;99025.73;1710279;83;25524;-70
2021/11/03 02:45:58;;;;;;;67.53;38.90;;;;;;;6.78;91.30;99032.64;1710276;83;27509;-70
2021/11/03 02:48:27;;;;;;;68.17;39.58;;;;;;;6.80;91.45;99024.48;1682791;83;25682;-70
2021/11/03 02:51:07;;;;;;;63.58;37.48;;;;;;;6.83;91.47;99029.80;1710369;83;25638;-70
2021/11/03 02:53:39;;;;;;;64.95;37.00;;;;;;;6.84;91.47;99031.36;1684645;83;25597;-70
2021/11/03 02:56:05;;;;;;;59.50;36.77;;;;;;;6.87;91.96;99034.77;1709476;83;25680;-70
2021/11/03 02:58:33;;;;;;;63.38;36.75;;;;;;;6.85;91.75;99033.73;1706422;82;27334;-70
2021/11/03 03:01:11;;;;;;;63.85;35.95;;;;;;;6.86;91.68;99038.02;1686580;85;25804;-70
2021/11/03 03:03:38;;;;;;;59.38;35.28;;;;;;;6.89;91.84;99037.93;1704450;84;25698;-70
2021/11/03 03:06:08;;;;;;;61.65;36.28;;;;;;;6.91;92.10;99041.09;1704702;84;26050;-70
2021/11/03 03:08:35;;;;;;;62.38;37.03;;;;;;;6.91;91.95;99040.55;1704821;84;25562;-70
2021/11/03 03:11:04;;;;;;;56.75;33.98;;;;;;;6.93;92.07;99037.55;1686858;85;27965;-70
2021/11/03 03:13:32;;;;;;;68.40;38.60;;;;;;;6.96;92.48;99042.28;1704871;84;25426;-70
2021/11/03 03:15:59;;;;;;;61.90;36.53;;;;;;;6.97;92.24;99042.53;1704758;84;26310;-70
2021/11/03 03:18:25;;;;;;;57.00;33.90;;;;;;;7.00;92.39;99046.47;1704873;84;25603;-70
2021/11/03 03:20:52;;;;;;;54.23;31.97;;;;;;;7.01;92.39;99042.13;1704790;84;25485;-70
2021/11/03 03:23:18;;;;;;;63.23;34.55;;;;;;;7.02;92.39;99045.06;1704800;84;27984;-70
2021/11/03 03:25:48;;;;;;;53.63;31.60;;;;;;;7.06;92.38;99042.53;1704820;83;25774;-70
2021/11/03 03:28:17;;;;;;;58.23;30.80;;;;;;;7.08;92.51;99045.69;1704736;84;25665;-72
2021/11/03 03:30:44;;;;;;;51.85;30.50;;;;;;;7.13;92.49;99051.47;1686783;85;25652;-71
2021/11/03 03:33:11;;;;;;;54.73;32.40;;;;;;;7.16;92.32;99050.84;1704860;84;25611;-68
2021/11/03 03:35:37;;;;;;;54.88;30.95;;;;;;;7.23;92.41;99053.84;1704847;84;27388;-69
2021/11/03 03:38:04;;;;;;;46.80;28.92;;;;;;;7.25;92.77;99059.16;1704599;84;25454;-69
2021/11/03 03:40:31;;;;;;;46.55;28.62;;;;;;;7.30;92.39;99051.47;1704944;84;25470;-70
2021/11/03 03:42:57;;;;;;;48.48;27.82;;;;;;;7.34;92.43;99053.78;1704881;84;25453;-70
2021/11/03 03:45:23;;;;;;;46.05;29.37;;;;;;;7.38;92.49;99061.44;1704626;84;25685;-70
2021/11/03 03:47:50;;;;;;;48.48;28.95;;;;;;;7.41;92.48;99054.64;1704864;84;27317;-70
2021/11/03 03:50:17;;;;;;;47.17;28.40;;;;;;;7.45;92.58;99062.30;1686848;85;25695;-70
2021/11/03 03:52:43;;;;;;;47.60;28.45;;;;;;;7.46;92.48;99052.58;1704728;84;25592;-70
2021/11/03 03:55:11;;;;;;;48.40;29.63;;;;;;;7.49;92.38;99056.52;1686743;85;26218;-70
2021/11/03 03:57:37;;;;;;;44.48;27.20;;;;;;;7.48;92.46;99055.73;1705740;83;25897;-70
2021/11/03 04:00:13;;;;;;;44.48;28.25;;;;;;;7.49;92.42;99063.23;1701806;84;28068;-70
2021/11/03 04:02:39;;;;;;;43.85;28.12;;;;;;;7.52;92.78;99067.98;1710178;83;25724;-68
2021/11/03 04:05:07;;;;;;;46.35;28.17;;;;;;;7.52;92.38;99066.65;1710159;83;25475;-68
2021/11/03 04:07:33;;;;;;;50.30;27.95;;;;;;;7.54;92.22;99070.37;1710006;83;25670;-68
2021/11/03 04:10:00;;;;;;;48.87;29.70;;;;;;;7.55;92.17;99071.96;1710124;83;25691;-69
2021/11/03 04:12:26;;;;;;;46.60;28.90;;;;;;;7.57;92.22;99077.81;1710267;83;27259;-68
2021/11/03 04:14:53;;;;;;;46.68;29.48;;;;;;;7.58;92.19;99076.15;1709824;83;25710;-70
2021/11/03 04:17:19;;;;;;;47.65;28.70;;;;;;;7.60;92.02;99074.48;1710125;83;25678;-70
2021/11/03 04:19:45;;;;;;;44.53;27.35;;;;;;;7.61;92.02;99072.02;1710161;83;25516;-70
2021/11/03 04:22:11;;;;;;;46.88;28.90;;;;;;;7.61;92.04;99070.13;1709919;83;25589;-70
2021/11/03 04:24:38;;;;;;;46.73;28.87;;;;;;;7.62;91.94;99064.19;1710274;83;27388;-68
2021/11/03 04:27:05;;;;;;;45.35;26.33;;;;;;;7.65;91.95;99067.03;1701924;84;25749;-70
2021/11/03 04:29:31;;;;;;;48.58;28.02;;;;;;;7.65;91.90;99068.94;1709998;83;25510;-69
2021/11/03 04:31:59;;;;;;;44.60;26.23;;;;;;;7.65;91.89;99073.76;1710123;83;25642;-68
2021/11/03 04:34:27;;;;;;;44.93;26.87;;;;;;;7.64;91.95;99078.92;1710145;83;26230;-68
2021/11/03 04:36:54;;;;;;;44.42;26.62;;;;;;;7.63;91.81;99078.67;1709871;83;27522;-68
2021/11/03 04:39:21;;;;;;;44.35;27.60;;;;;;;7.64;91.85;99087.00;1710076;83;25408;-67
2021/11/03 04:41:47;;;;;;;43.30;25.10;;;;;;;7.64;91.76;99088.88;1710204;83;25504;-67
2021/11/03 04:44:14;;;;;;;43.23;26.25;;;;;;;7.63;91.73;99096.17;1709772;83;25524;-68
2021/11/03 04:46:41;;;;;;;42.38;24.57;;;;;;;7.63;91.79;99098.86;1710194;83;25675;-68
2021/11/03 04:49:08;;;;;;;39.95;24.50;;;;;;;7.68;92.00;99095.22;1702029;84;27480;-68
2021/11/03 04:51:35;;;;;;;40.28;24.23;;;;;;;7.71;91.92;99105.33;1709898;82;25550;-68
2021/11/03 04:54:01;;;;;;;41.02;24.92;;;;;;;7.75;91.79;99106.86;1710117;83;25481;-68
2021/11/03 04:56:28;;;;;;;41.53;25.75;;;;;;;7.79;91.90;99109.13;1710091;83;25484;-68
2021/11/03 04:58:55;;;;;;;44.18;24.77;;;;;;;7.83;91.80;99108.19;1706768;81;25662;-68
2021/11/03 05:01:24;;;;;;;39.42;24.60;;;;;;;7.86;91.58;99106.73;1686765;85;27443;-68
2021/11/03 05:03:52;;;;;;;43.28;26.23;;;;;;;7.89;91.79;99111.48;1704878;84;25778;-68
2021/11/03 05:06:23;;;;;;;36.68;23.07;;;;;;;7.89;91.32;99106.67;1704817;84;25587;-69
2021/11/03 05:08:50;;;;;;;41.42;24.25;;;;;;;7.92;91.58;99106.03;1704807;84;25952;-69
2021/11/03 05:11:18;;;;;;;39.08;25.48;;;;;;;7.93;91.31;99112.98;1686759;85;25451;-68
2021/11/03 05:13:45;;;;;;;41.65;24.87;;;;;;;7.95;91.22;99107.53;1704571;84;27589;-68
2021/11/03 05:16:16;;;;;;;38.88;24.20;;;;;;;7.98;91.17;99115.51;1704634;84;25418;-68
2021/11/03 05:18:42;;;;;;;40.15;26.30;;;;;;;7.96;91.06;99123.13;1704859;84;25655;-69
2021/11/03 05:21:09;;;;;;;42.43;25.95;;;;;;;7.95;91.02;99122.88;1704462;84;25784;-69
2021/11/03 05:23:36;;;;;;;41.28;26.12;;;;;;;7.92;90.89;99123.53;1704903;84;25473;-68
2021/11/03 05:26:02;;;;;;;40.43;25.68;;;;;;;7.89;91.22;99130.34;1686737;85;27377;-69
2021/11/03 05:28:32;;;;;;;42.10;26.33;;;;;;;7.86;90.82;99136.35;1704504;84;25686;-68
2021/11/03 05:30:59;;;;;;;39.53;24.63;;;;;;;7.82;91.04;99130.81;1686773;85;25788;-69
2021/11/03 05:33:25;;;;;;;41.77;25.02;;;;;;;7.80;90.92;99143.81;1704792;84;25751;-69
2021/11/03 05:35:51;;;;;;;38.73;24.52;;;;;;;7.76;91.04;99141.50;1704755;84;25717;-68
2021/11/03 05:38:18;;;;;;;41.05;25.35;;;;;;;7.75;90.96;99142.63;1704880;84;27255;-68
2021/11/03 05:40:45;;;;;;;42.17;23.70;;;;;;;7.76;91.08;99143.41;1704911;84;25716;-68
2021/11/03 05:43:11;;;;;;;44.80;26.82;;;;;;;7.77;91.01;99145.78;1704684;84;25702;-68
2021/11/03 05:45:38;;;;;;;43.83;28.00;;;;;;;7.76;91.11;99153.62;1686897;85;25722;-68
2021/11/03 05:48:05;;;;;;;45.20;28.23;;;;;;;7.75;91.37;99156.09;1679664;84;25780;-68
2021/11/03 05:50:34;;;;;;;42.60;26.60;;;;;;;7.74;91.54;99157.19;1704751;84;27336;-68
2021/11/03 05:53:02;;;;;;;43.55;27.32;;;;;;;7.75;91.33;99163.37;1704969;84;28944;-68
2021/11/03 05:55:30;;;;;;;44.93;26.97;;;;;;;7.73;91.39;99156.16;1686913;85;25661;-68
2021/11/03 05:57:57;;;;;;;39.30;25.20;;;;;;;7.72;91.54;99166.14;1704726;82;26057;-68
2021/11/03 06:00:29;;;;;;;40.63;25.50;;;;;;;7.69;91.31;99170.80;1710257;83;25977;-68
2021/11/03 06:02:56;;;;;;;50.08;27.67;;;;;;;7.69;91.44;99172.72;1710242;83;28100;-68
2021/11/03 06:05:23;;;;;;;43.90;27.32;;;;;;;7.66;91.50;99170.90;1701837;84;25808;-68
2021/11/03 06:07:56;;;;;;;47.03;27.20;;;;;;;7.66;91.47;99174.12;1680920;83;25694;-68
2021/11/03 06:10:32;;;;;;;46.58;27.52;;;;;;;7.65;91.59;99185.45;1710249;83;25710;-67
2021/11/03 06:12:59;;;;;;;42.05;25.70;;;;;;;7.65;91.51;99194.09;1710113;83;25758;-69
2021/11/03 06:15:31;;;;;;;43.83;25.62;;;;;;;7.64;91.75;99196.53;1710204;83;27384;-69
2021/11/03 06:17:58;;;;;;;41.98;25.85;;;;;;;7.63;91.58;99198.44;1710175;83;25611;-69
2021/11/03 06:20:25;;;;;;;44.38;26.93;;;;;;;7.62;91.52;99199.53;1709996;83;26259;-69
2021/11/03 06:22:51;;;;;;;42.78;25.92;;;;;;;7.63;91.62;99201.69;1710239;83;26231;-69
2021/11/03 06:25:19;;;;;;;40.80;25.82;;;;;;;7.65;91.67;99204.29;1710211;83;25666;-69
2021/11/03 06:27:47;;;;;;;43.63;26.37;;;;;;;7.66;91.65;99213.14;1710017;83;27977;-69
2021/11/03 06:30:18;;;;;;;43.20;26.02;;;;;;;7.66;91.73;99214.49;1710082;83;25557;-69
2021/11/03 06:32:45;;;;;;;41.68;25.10;;;;;;;7.65;91.69;99217.75;1710302;83;25488;-69
2021/11/03 06:35:13;;;;;;;40.92;25.70;;;;;;;7.67;91.77;99228.20;1709943;83;25703;-69
2021/11/03 06:37:42;;;;;;;40.10;25.72;;;;;;;7.67;91.71;99230.33;1710311;83;25489;-69
2021/11/03 06:40:13;;;;;;;45.63;26.20;;;;;;;7.71;91.94;99237.22;1710283;83;27526;-68
2021/11/03 06:42:40;;;;;;;42.13;25.15;;;;;;;7.70;91.82;99237.00;1709978;83;25816;-68
2021/11/03 06:45:10;;;;;;;43.38;26.17;;;;;;;7.71;92.10;99243.95;1710165;83;25581;-69
2021/11/03 06:47:37;;;;;;;42.50;24.72;;;;;;;7.72;92.00;99240.16;1710273;83;25693;-69
2021/11/03 06:50:08;;;;;;;41.63;25.50;;;;;;;7.74;92.11;99247.36;1709957;83;25621;-68
2021/11/03 06:52:36;;;;;;;41.88;26.37;;;;;;;7.78;92.26;99246.98;1710279;83;27343;-68
2021/11/03 06:55:06;;;;;;;42.75;26.33;;;;;;;7.80;92.18;99249.37;1710101;83;25776;-68
2021/11/03 06:57:33;;;;;;;45.80;28.02;;;;;;;7.90;92.50;99248.24;1709971;83;25583;-68
2021/11/03 07:00:00;;;;;;;43.08;25.65;;;;;;;8.00;92.94;99256.01;1710038;82;25887;-68
2021/11/03 07:02:27;;;;;;;39.58;25.68;;;;;;;8.05;92.60;99247.77;1710272;83;25493;-69
2021/11/03 07:04:54;;;;;;;46.70;26.77;;;;;;;8.12;92.07;99253.49;1709943;83;29459;-69
2021/11/03 07:07:20;;;;;;;44.63;26.45;;;;;;;8.18;91.98;99251.42;1710087;83;25671;-69
2021/11/03 07:09:46;;;;;;;42.65;26.23;;;;;;;8.31;92.37;99258.55;1710245;83;25631;-69
2021/11/03 07:12:13;;;;;;;39.42;24.32;;;;;;;8.47;92.43;99264.81;1709940;83;25411;-69
2021/11/03 07:14:40;;;;;;;41.80;24.75;;;;;;;8.60;92.04;99267.33;1710239;83;25727;-69
2021/11/03 07:17:11;;;;;;;40.40;24.57;;;;;;;8.69;92.42;99275.95;1710293;83;28140;-68
2021/11/03 07:19:35;;;;;;;39.23;24.55;;;;;;;8.77;91.69;99273.23;1709658;83;25695;-68
2021/11/03 07:22:01;;;;;;;39.55;24.63;;;;;;;8.86;90.67;99276.46;1710145;83;25795;-69
2021/11/03 07:24:27;;;;;;;43.13;25.50;;;;;;;8.96;91.03;99280.94;1710209;83;25642;-69
2021/11/03 07:26:54;;;;;;;37.75;23.30;;;;;;;9.11;90.78;99278.84;1709969;83;25635;-69
2021/11/03 07:29:22;;;;;;;38.15;23.52;;;;;;;9.25;89.67;99283.45;1710214;83;27333;-69
2021/11/03 07:31:49;;;;;;;38.85;24.55;;;;;;;9.45;89.73;99284.63;1702017;84;25754;-68
2021/11/03 07:34:16;;;;;;;43.38;25.12;;;;;;;9.64;89.61;99285.55;1709897;83;25683;-68
2021/11/03 07:36:43;;;;;;;38.48;24.85;;;;;;;9.85;89.99;99286.13;1702042;84;25614;-68
2021/11/03 07:39:09;;;;;;;36.38;23.40;;;;;;;10.13;90.31;99291.01;1710167;83;25666;-67
2021/11/03 07:41:36;;;;;;;34.27;23.32;;;;;;;10.36;89.37;99291.50;1701846;84;27422;-68
2021/11/03 07:44:05;;;;;;;36.75;23.70;;;;;;;10.72;90.76;99296.23;1709360;83;25644;-68
2021/11/03 07:46:33;;;;;;;36.93;23.87;;;;;;;10.95;88.22;99306.68;1702303;84;25475;-68
2021/11/03 07:49:00;;;;;;;32.25;22.00;;;;;;;11.12;88.69;99302.41;1709772;83;26068;-68
2021/11/03 07:51:27;;;;;;;36.55;24.30;;;;;;;11.32;86.79;99308.06;1702139;84;25651;-68
2021/11/03 07:53:58;;;;;;;35.40;23.57;;;;;;;11.48;86.99;99314.39;1710157;83;27377;-68
2021/11/03 07:56:23;;;;;;;31.00;21.23;;;;;;;11.67;86.04;99319.80;1680199;83;25855;-68
2021/11/03 07:58:53;;;;;;;41.20;23.90;;;;;;;11.76;83.45;99321.81;1710026;81;25563;-68
2021/11/03 08:01:20;;;;;;;35.80;24.20;;;;;;;11.82;83.49;99323.17;1710262;83;25466;-67
2021/11/03 08:03:47;;;;;;;37.50;25.02;;;;;;;12.11;86.12;99326.77;1706586;82;25710;-68
2021/11/03 08:06:14;;;;;;;29.42;20.97;;;;;;;12.52;87.51;99325.61;1691862;83;29478;-68
2021/11/03 08:08:49;;;;;;;30.60;21.12;;;;;;;12.74;83.05;99328.92;1688987;82;25687;-68
2021/11/03 08:11:14;;;;;;;30.77;20.80;;;;;;;12.79;81.71;99329.24;1697514;84;25866;-67
2021/11/03 08:13:41;;;;;;;33.90;21.17;;;;;;;13.03;81.58;99322.31;1710002;83;25713;-67
2021/11/03 08:16:10;;;;;;;29.80;19.77;;;;;;;13.20;82.08;99329.91;1710171;83;25708;-67
2021/11/03 08:18:41;;;;;;;28.37;20.33;;;;;;;13.19;77.72;99336.47;1710032;83;27322;-66
2021/11/03 08:21:11;;;;;;;28.50;19.87;;;;;;;13.06;78.65;99340.63;1709862;83;25295;-66
2021/11/03 08:23:37;;;;;;;28.80;18.98;;;;;;;13.10;78.98;99346.72;1710091;83;25737;-66
2021/11/03 08:26:06;;;;;;;25.48;18.55;;;;;;;12.87;77.46;99341.84;1709556;83;25790;-65
2021/11/03 08:28:32;;;;;;;25.02;17.45;;;;;;;12.60;75.58;99354.29;1710326;83;25706;-65
2021/11/03 08:31:00;;;;;;;28.02;17.30;;;;;;;12.21;75.06;99353.95;1710063;83;27321;-66
2021/11/03 08:33:31;;;;;;;26.87;17.73;;;;;;;11.80;75.96;99363.92;1709796;82;25425;-66
2021/11/03 08:36:00;;;;;;;27.32;18.98;;;;;;;11.45;76.08;99367.09;1698556;84;25621;-65
2021/11/03 08:38:27;;;;;;;30.30;18.15;;;;;;;11.12;76.58;99363.30;1698866;84;25406;-65
2021/11/03 08:40:54;;;;;;;29.82;18.65;;;;;;;10.89;77.63;99366.17;1698736;84;25401;-65
2021/11/03 08:43:24;;;;;;;28.75;18.75;;;;;;;10.76;78.41;99372.09;1699052;84;27321;-65
2021/11/03 08:45:53;;;;;;;31.10;19.67;;;;;;;10.58;78.68;99373.59;1698956;84;25601;-68
2021/11/03 08:48:23;;;;;;;31.97;21.17;;;;;;;10.50;79.58;99377.73;1698870;84;25483;-66
2021/11/03 08:50:50;;;;;;;33.65;20.88;;;;;;;10.46;79.76;99382.44;1699042;84;25658;-68
2021/11/03 08:53:18;;;;;;;27.65;19.57;;;;;;;10.52;80.83;99380.89;1699124;84;25553;-66
2021/11/03 08:55:48;;;;;;;34.45;20.50;;;;;;;10.69;81.07;99374.55;1698742;84;27331;-66
2021/11/03 08:58:17;;;;;;;29.50;19.02;;;;;;;11.38;83.78;99372.48;1698908;84;25639;-66
2021/11/03 09:00:46;;;;;;;27.77;19.15;;;;;;;11.83;81.45;99378.92;1699072;84;32693;-67
2021/11/03 09:03:14;;;;;;;30.10;19.48;;;;;;;12.00;81.14;99386.06;1699025;84;25390;-67
2021/11/03 09:05:42;;;;;;;30.32;20.72;;;;;;;12.02;80.00;99385.72;1699050;84;25578;-67
2021/11/03 09:08:13;;;;;;;33.23;21.15;;;;;;;11.84;77.99;99391.93;1699079;84;27325;-67
2021/11/03 09:10:48;;;;;;;31.62;19.75;;;;;;;11.59;77.28;99394.07;1697926;84;25661;-67
2021/11/03 09:13:19;;;;;;;28.47;19.77;;;;;;;11.48;78.20;99390.22;1699293;84;25662;-67
2021/11/03 09:15:46;;;;;;;31.90;21.17;;;;;;;11.50;78.79;99388.52;1732471;82;25997;-67
2021/11/03 09:18:15;;;;;;;32.20;19.82;;;;;;;11.52;78.44;99393.03;1732353;82;25444;-66
2021/11/03 09:20:44;;;;;;;32.85;21.80;;;;;;;11.40;78.18;99395.94;1732473;82;28171;-66
2021/11/03 09:23:12;;;;;;;35.08;21.00;;;;;;;11.30;78.09;99400.44;1732593;82;25837;-66
2021/11/03 09:25:39;;;;;;;35.30;21.93;;;;;;;11.16;78.13;99395.91;1730816;82;25918;-66
2021/11/03 09:28:07;;;;;;;35.70;21.17;;;;;;;11.10;78.36;99401.29;1732031;82;25699;-66
2021/11/03 09:30:35;;;;;;;34.18;21.27;;;;;;;11.01;78.70;99415.69;1732452;82;25404;-67
2021/11/03 09:33:07;;;;;;;33.08;22.52;;;;;;;10.90;78.92;99407.77;1732285;82;27535;-66
2021/11/03 09:35:44;;;;;;;40.28;23.95;;;;;;;10.83;78.94;99421.05;1732462;82;25712;-66
2021/11/03 09:38:15;;;;;;;38.33;23.55;;;;;;;10.67;79.04;99411.38;1732423;82;25704;-66
2021/11/03 09:41:02;;;;;;;41.77;23.05;;;;;;;10.63;79.48;99414.53;1732504;82;25626;-67
2021/11/03 09:43:37;;;;;;;32.45;21.35;;;;;;;10.64;79.73;99414.74;1732480;82;25479;-67
2021/11/03 09:46:24;;;;;;;37.23;22.48;;;;;;;11.09;79.95;99413.26;1731986;82;29574;-67
2021/11/03 09:49:02;;;;;;;36.40;23.05;;;;;;;11.06;78.87;99413.34;1641114;86;25761;-68
2021/11/03 09:51:31;;;;;;;38.78;23.40;;;;;;;10.97;79.08;99413.43;1641324;87;25668;-66
2021/11/03 09:54:02;;;;;;;59.57;24.43;;;;;;;10.95;79.60;99410.27;1641363;87;26064;-67
2021/11/03 09:56:40;;;;;;;40.90;24.87;;;;;;;10.91;79.70;99415.32;1641411;87;25684;-68
2021/11/03 09:59:38;;;;;;;40.70;24.90;;;;;;;10.85;79.27;99407.98;1641313;87;29556;-67
2021/11/03 10:02:30;;;;;;;43.73;26.63;;;;;;;10.68;79.01;99421.09;1641398;87;25858;-67
2021/11/03 10:05:20;;;;;;;41.75;26.00;;;;;;;10.53;79.21;99418.98;1640861;87;25514;-66
2021/11/03 10:08:04;;;;;;;46.33;26.80;;;;;;;10.46;79.67;99426.27;1641404;87;25525;-67
2021/11/03 10:10:41;;;;;;;41.30;25.12;;;;;;;10.35;79.78;99434.52;1641447;87;25715;-67
2021/11/03 10:13:19;;;;;;;42.25;27.05;;;;;;;10.20;79.93;99442.06;1641317;87;27923;-67
2021/11/03 10:16:06;;;;;;;39.75;25.37;;;;;;;10.08;80.13;99447.38;1641116;87;25516;-66
2021/11/03 10:18:56;;;;;;;38.05;24.95;;;;;;;9.97;79.82;99447.50;1636442;87;25520;-67
2021/11/03 10:21:33;;;;;;;44.33;26.27;;;;;;;9.86;80.22;99453.84;1641344;87;25755;-68
2021/11/03 10:24:19;;;;;;;46.92;26.90;;;;;;;9.74;80.47;99455.88;1640964;87;25795;-67
2021/11/03 10:26:57;;;;;;;40.60;25.72;;;;;;;9.63;80.80;99455.41;1707237;83;28232;-67
2021/11/03 10:29:35;;;;;;;39.33;26.05;;;;;;;9.59;81.28;99451.78;1692454;84;26153;-66
2021/11/03 10:32:16;;;;;;;38.70;25.25;;;;;;;9.54;81.57;99451.39;1677184;85;25470;-66
2021/11/03 10:34:48;;;;;;;40.35;26.40;;;;;;;9.52;81.68;99450.92;1707016;84;25441;-67
2021/11/03 10:37:22;;;;;;;39.85;25.57;;;;;;;9.54;82.07;99455.44;1677269;85;25626;-67
2021/11/03 10:40:21;;;;;;;38.40;25.68;;;;;;;9.57;82.28;99457.25;1707403;82;27401;-67
2021/11/03 10:42:56;;;;;;;36.40;24.92;;;;;;;9.61;82.20;99459.56;1705478;84;25498;-66
2021/11/03 10:45:37;;;;;;;38.65;25.23;;;;;;;9.60;82.02;99454.70;1707291;84;25746;-66
2021/11/03 10:48:23;;;;;;;39.98;25.25;;;;;;;9.63;82.29;99455.41;1708776;84;26063;-66
2021/11/03 10:51:14;;;;;;;38.60;25.68;;;;;;;9.71;82.82;99463.27;1708795;84;25535;-67
2021/11/03 10:53:49;;;;;;;38.58;25.90;;;;;;;9.79;82.70;99463.80;1708441;84;27358;-66
2021/11/03 10:56:30;;;;;;;38.65;25.92;;;;;;;9.82;82.59;99456.38;1708570;84;25893;-66
2021/11/03 10:59:02;;;;;;;36.42;25.30;;;;;;;9.86;82.86;99455.97;1708698;84;25621;-66
2021/11/03 11:01:40;;;;;;;37.40;23.67;;;;;;;9.99;83.06;99459.55;1704201;83;25567;-66
2021/11/03 11:04:35;;;;;;;36.35;23.67;;;;;;;10.22;83.93;99456.60;1703396;84;25587;-66
2021/11/03 11:07:09;;;;;;;36.05;24.15;;;;;;;10.44;83.55;99463.09;1663728;85;28005;-66
2021/11/03 11:09:50;;;;;;;31.73;22.67;;;;;;;10.73;82.84;99470.14;1683931;84;25678;-66
2021/11/03 11:12:29;;;;;;;39.18;23.77;;;;;;;10.94;83.47;99459.30;1685371;85;25735;-65
2021/11/03 11:15:28;;;;;;;35.08;22.30;;;;;;;11.12;81.98;99464.80;1703269;84;26486;-66
2021/11/03 11:18:38;;;;;;;33.60;20.25;;;;;;;11.13;80.78;99461.52;1669547;85;25737;-66
2021/11/03 11:21:28;;;;;;;32.80;20.43;;;;;;;11.05;80.41;99471.86;1610821;89;27321;-64
2021/11/03 11:24:03;;;;;;;27.45;19.85;;;;;;;11.10;80.74;99470.30;1555485;92;25895;-65
2021/11/03 11:26:38;;;;;;;35.10;21.05;;;;;;;11.12;80.43;99472.13;1555658;91;25838;-63
2021/11/03 11:29:27;;;;;;;28.23;20.23;;;;;;;11.14;80.54;99469.31;1555811;92;26235;-64
2021/11/03 11:32:05;;;;;;;32.58;20.82;;;;;;;11.19;81.10;99467.75;1543108;92;25807;-65
2021/11/03 11:35:01;;;;;;;32.88;19.40;;;;;;;11.39;82.87;99463.42;1553863;92;27489;-63
2021/11/03 11:37:58;;;;;;;28.75;19.90;;;;;;;11.73;82.25;99467.42;1553710;92;25788;-63